createdAt,value
2022-10-05T00:03:10.780Z,101448.84
2022-10-05T00:10:16.877Z,101459.06
2022-10-05T00:17:20.377Z,101444.91
2022-10-05T00:24:22.014Z,101431.03
2022-10-05T00:31:30.467Z,101445.59
2022-10-05T00:38:32.055Z,101447.81
2022-10-05T00:45:38.484Z,101446.41
2022-10-05T00:52:54.734Z,101426.69
2022-10-05T00:59:59.783Z,101423.47
2022-10-05T01:07:08.079Z,101414.72
2022-10-05T01:14:21.995Z,101406.97
2022-10-05T01:21:25.063Z,101417.94
2022-10-05T01:28:49.486Z,101396.50
2022-10-05T01:36:03.038Z,101383.91
2022-10-05T01:43:27.571Z,101390.38
2022-10-05T01:50:53.534Z,101400.50
2022-10-05T01:58:32.234Z,101393.28
2022-10-05T02:06:10.466Z,101406.72
2022-10-05T02:13:15.549Z,101405.25
2022-10-05T02:20:25.736Z,101413.53
2022-10-05T02:27:28.738Z,101419.97
2022-10-05T02:34:39.171Z,101415.94
2022-10-05T02:41:57.761Z,101414.22
2022-10-05T02:49:08.658Z,101411.03
2022-10-05T02:56:35.002Z,101412.69
2022-10-05T03:03:39.216Z,101406.41
2022-10-05T03:10:57.311Z,101390.47
2022-10-05T03:18:03.222Z,101390.81
2022-10-05T03:25:18.262Z,101383.41
2022-10-05T03:32:22.992Z,101381.66
2022-10-05T03:39:34.115Z,101367.28
2022-10-05T03:46:45.651Z,101355.06
2022-10-05T03:53:49.700Z,101355.75
2022-10-05T04:00:56.193Z,101346.00
2022-10-05T04:08:22.768Z,101338.38
2022-10-05T04:15:37.722Z,101341.97
2022-10-05T04:23:27.122Z,101338.16
2022-10-05T04:30:28.923Z,101347.38
2022-10-05T04:37:58.526Z,101332.91
2022-10-05T04:45:22.833Z,101336.56
2022-10-05T04:52:44.004Z,101350.69
2022-10-05T05:00:19.767Z,101347.38
2022-10-05T05:07:32.710Z,101352.84
2022-10-05T05:15:00.868Z,101352.06
2022-10-05T05:22:28.985Z,101344.84
2022-10-05T05:29:34.121Z,101350.16
2022-10-05T05:36:45.183Z,101333.94
2022-10-05T05:43:53.262Z,101317.97
2022-10-05T05:51:07.568Z,101314.44
2022-10-05T05:58:25.416Z,101331.09
2022-10-05T06:06:00.778Z,101331.38
2022-10-05T06:13:06.350Z,101329.63
2022-10-05T06:20:22.322Z,101334.06
2022-10-05T06:27:39.130Z,101333.03
2022-10-05T06:35:19.675Z,101350.91
2022-10-05T06:42:40.653Z,101336.34
2022-10-05T06:50:38.421Z,101351.97
2022-10-05T06:58:07.746Z,101350.44
2022-10-05T07:05:47.045Z,101345.75
2022-10-05T07:13:23.275Z,101350.19
2022-10-05T07:20:32.197Z,101342.84
2022-10-05T07:28:07.159Z,101353.00
2022-10-05T07:35:53.010Z,101346.22
2022-10-05T07:43:20.167Z,101349.19
2022-10-05T07:50:31.914Z,101354.47
2022-10-05T07:57:53.915Z,101353.53
2022-10-05T08:05:00.248Z,101342.53
2022-10-05T08:12:46.859Z,101361.28
2022-10-05T08:20:29.137Z,101314.19
2022-10-05T08:27:52.732Z,101313.78
2022-10-05T08:35:21.732Z,101295.38
2022-10-05T08:42:38.458Z,101293.72
2022-10-05T08:50:03.154Z,101290.31
2022-10-05T08:57:22.866Z,101287.69
2022-10-05T09:04:35.933Z,101277.75
2022-10-05T09:11:56.327Z,101276.22
2022-10-05T09:19:07.385Z,101271.75
2022-10-05T09:26:46.440Z,101270.94
2022-10-05T09:33:57.016Z,101255.03
2022-10-05T09:41:36.395Z,101252.25
2022-10-05T09:49:06.495Z,101258.09
2022-10-05T09:56:10.853Z,101247.34
2022-10-05T10:03:43.357Z,101243.34
2022-10-05T10:10:56.752Z,101236.63
2022-10-05T10:18:29.338Z,101231.41
2022-10-05T10:26:08.470Z,101222.44
2022-10-05T10:33:31.654Z,101245.63
2022-10-05T10:41:10.119Z,101247.47
2022-10-05T10:48:44.026Z,101244.34
2022-10-05T10:56:03.776Z,101245.53
2022-10-05T11:03:20.185Z,101249.47
2022-10-05T11:10:58.863Z,101223.47
2022-10-05T11:18:06.522Z,101220.41
2022-10-05T11:25:08.008Z,101200.50
2022-10-05T11:32:34.001Z,101201.50
2022-10-05T11:40:03.429Z,101178.97
2022-10-05T11:47:25.154Z,101175.41
2022-10-05T11:55:09.686Z,101171.19
2022-10-05T12:02:19.281Z,101163.75
2022-10-05T12:10:09.823Z,101169.13
2022-10-05T12:17:11.265Z,101156.72
2022-10-05T12:24:41.784Z,101141.00
2022-10-05T12:31:46.182Z,101133.91
2022-10-05T12:39:06.064Z,101114.88
2022-10-05T12:46:19.834Z,101103.81
2022-10-05T12:53:43.546Z,101112.47
2022-10-05T13:00:57.713Z,101106.06
2022-10-05T13:08:17.872Z,101094.50
2022-10-05T13:15:27.819Z,101102.41
2022-10-05T13:22:36.963Z,101087.50
2022-10-05T13:29:40.006Z,101089.78
2022-10-05T13:37:10.871Z,101090.53
2022-10-05T13:44:18.859Z,101085.38
2022-10-05T13:51:47.084Z,101088.06
2022-10-05T13:59:17.713Z,101078.28
2022-10-05T14:06:29.843Z,101078.38
2022-10-05T14:13:40.879Z,101069.16
2022-10-05T14:20:42.445Z,101075.66
2022-10-05T14:27:57.047Z,101067.69
2022-10-05T14:35:12.761Z,101062.41
2022-10-05T14:42:24.981Z,101044.69
2022-10-05T14:49:27.471Z,101031.03
2022-10-05T14:56:40.980Z,101023.72
2022-10-05T15:03:46.604Z,101029.47
2022-10-05T15:10:50.897Z,101024.88
2022-10-05T15:17:59.718Z,101019.28
2022-10-05T15:25:16.370Z,101023.59
2022-10-05T15:32:41.514Z,101026.09
2022-10-05T15:39:52.476Z,101019.00
2022-10-05T15:46:59.846Z,101028.84
2022-10-05T15:54:31.733Z,101033.69
2022-10-05T16:01:33.357Z,101029.81
2022-10-05T16:08:55.735Z,101028.34
2022-10-05T16:16:11.915Z,101026.56
2022-10-05T16:23:38.793Z,101025.44
2022-10-05T16:30:58.596Z,101012.16
2022-10-05T16:38:22.000Z,101018.00
2022-10-05T16:45:29.638Z,101003.13
2022-10-05T16:52:31.192Z,101012.47
2022-10-05T17:00:00.266Z,101015.84
2022-10-05T17:07:32.767Z,101016.94
2022-10-05T17:14:39.628Z,101020.63
2022-10-05T17:22:00.409Z,101025.03
2022-10-05T17:29:12.921Z,101027.41
2022-10-05T17:36:17.911Z,101032.94
2022-10-05T17:43:24.262Z,101029.53
2022-10-05T17:51:20.485Z,101035.13
2022-10-05T17:58:27.286Z,101036.53
2022-10-05T18:05:29.321Z,101029.50
2022-10-05T18:12:36.793Z,101025.97
2022-10-05T18:19:39.462Z,101024.41
2022-10-05T18:26:57.225Z,101023.69
2022-10-05T18:34:11.378Z,101024.69
2022-10-05T18:41:22.518Z,101032.19
2022-10-05T18:48:34.287Z,101015.34
2022-10-05T18:55:43.965Z,101030.56
2022-10-05T19:03:08.868Z,101025.00
2022-10-05T19:10:38.654Z,101027.50
2022-10-05T19:17:50.703Z,101025.41
2022-10-05T19:25:05.466Z,101043.09
2022-10-05T19:32:27.134Z,101055.94
2022-10-05T19:39:37.123Z,101060.28
2022-10-05T19:46:49.420Z,101072.16
2022-10-05T19:53:51.890Z,101072.00
2022-10-05T20:01:00.842Z,101087.59
2022-10-05T20:08:03.765Z,101089.81
2022-10-05T20:15:25.777Z,101097.38
2022-10-05T20:22:33.083Z,101107.16
2022-10-05T20:29:38.998Z,101128.06
2022-10-05T20:36:43.153Z,101126.56
2022-10-05T20:43:44.703Z,101131.38
2022-10-05T20:50:47.245Z,101133.16
2022-10-05T20:57:48.834Z,101161.47
2022-10-05T21:04:50.415Z,101163.66
2022-10-05T21:11:52.866Z,101165.22
2022-10-05T21:18:54.430Z,101171.66
2022-10-05T21:25:55.967Z,101166.44
2022-10-05T21:32:57.518Z,101181.91
2022-10-05T21:39:59.249Z,101181.38
2022-10-05T21:47:01.134Z,101190.25
2022-10-05T21:54:08.145Z,101189.84
2022-10-05T22:01:09.814Z,101195.28
2022-10-05T22:08:28.077Z,101193.19
2022-10-05T22:15:30.172Z,101195.06
2022-10-05T22:22:33.046Z,101196.16
2022-10-05T22:29:34.615Z,101193.34
2022-10-05T22:36:36.289Z,101205.63
2022-10-05T22:43:38.069Z,101206.25
2022-10-05T22:50:39.634Z,101210.75
2022-10-05T22:57:41.760Z,101211.84
2022-10-05T23:04:43.309Z,101223.00
2022-10-05T23:11:46.559Z,101227.06
2022-10-05T23:18:49.035Z,101230.53
2022-10-05T23:25:50.592Z,101231.44
2022-10-05T23:32:52.140Z,101237.72
2022-10-05T23:39:53.704Z,101250.31
2022-10-05T23:46:55.233Z,101250.56
2022-10-05T23:53:56.765Z,101257.19
